Latest Weather Observations for Tasman Island

IDT60801

Issued at 8:41 am EST Tuesday 17 September 2019 (issued every 10 minutes, with the page automatically refreshed every 10 minutes)

About weather observations | Map of weather stations | Latest weather observations for TAS | Other Formats
Station Details ID: 094155 Name: TASMAN ISLAND Lat: -43.24 Lon: 148.00 Height: 240.0 m
Data from the previous 72 hours. | See also: Recent months at Tasman Island
Date/Time
EST
Temp
°C
App
Temp
°C
Dew
Point
°C
Rel
Hum
%
Delta-T
°C
Wind Press
QNH
hPa
Press
MSL
hPa
Rain since
9am
mm
Dir  Spd
km/h
Gust
km/h
Spd
kts
Gust
kts
17/08:30am 6.6 0.2 -1.5 56 3.0 WNW 22 37 12 20 1025.0 1025.3 0.6
17/08:00am 6.2 -1.0 -1.7 57 2.9 WNW 26 43 14 23 1024.7 1025.0 0.6
17/07:30am 5.6 -1.5 -1.1 62 2.5 WNW 26 39 14 21 1024.5 1024.8 0.6
17/07:00am 4.9 -2.2 -0.9 66 2.2 WNW 26 39 14 21 1024.0 1024.3 0.6
17/06:30am 4.6 -0.7 -0.6 69 2.0 WNW 17 43 9 23 1023.6 1023.9 0.6
17/06:00am 4.2 -2.0 -0.2 73 1.7 WNW 22 41 12 22 1023.5 1023.8 0.6
17/05:30am 4.4 1.1 0.2 74 1.6 W 7 24 4 13 1023.0 1023.3 0.6
17/05:00am 4.2 -1.0 0.2 75 1.5 WNW 17 33 9 18 1022.9 1023.2 0.6
17/04:30am 4.3 -0.1 0.3 75 1.5 NW 13 39 7 21 1022.8 1023.1 0.6
17/04:00am 4.2 -1.6 0.0 74 1.6 NW 20 39 11 21 1022.7 1023.0 0.6
17/03:30am 4.3 -1.5 0.1 74 1.6 NW 20 37 11 20 1022.5 1022.8 0.6
17/03:00am 4.4 0.0 0.2 74 1.6 WNW 13 39 7 21 1022.7 1023.0 0.6
17/02:30am 4.5 -0.3 0.3 74 1.6 WNW 15 35 8 19 1022.7 1023.0 0.6
17/02:00am 4.5 -2.0 0.3 74 1.6 WNW 24 41 13 22 1022.8 1023.1 0.6
17/01:30am 4.8 0.8 0.6 74 1.6 WNW 11 33 6 18 1022.8 1023.1 0.6
17/01:00am 4.7 0.7 0.3 73 1.7 WNW 11 32 6 17 1022.9 1023.2 0.6
17/12:30am 4.6 0.9 -0.2 71 1.8 W 9 37 5 20 1022.9 1023.2 0.6
17/12:00am 4.8 1.1 0.0 71 1.8 NW 9 33 5 18 1022.8 1023.1 0.6
 
Date/Time
EST
Temp
°C
App
Temp
°C
Dew
Point
°C
Rel
Hum
%
Delta-T
°C
Wind Press
QNH
hPa
Press
MSL
hPa
Rain since
9am
mm
Dir  Spd
km/h
Gust
km/h
Spd
kts
Gust
kts
16/11:30pm 5.2 1.2 0.6 72 1.8 WSW 11 32 6 17 1022.6 1022.9 0.6
16/11:00pm 4.9 1.3 0.3 72 1.8 NNE 9 26 5 14 1022.3 1022.6 0.6
16/10:30pm 4.7 1.1 0.5 74 1.6 W 9 35 5 19 1022.2 1022.5 0.6
16/10:00pm 5.1 1.9 0.5 72 1.8 WSW 7 24 4 13 1022.2 1022.5 0.6
16/09:30pm 4.9 0.9 0.3 72 1.8 NW 11 39 6 21 1021.9 1022.2 0.6
16/09:00pm 5.0 0.6 0.4 72 1.8 W 13 46 7 25 1021.5 1021.8 0.6
16/08:30pm 5.1 1.4 -0.1 69 2.0 N 9 33 5 18 1021.1 1021.4 0.6
16/08:00pm 5.2 1.2 0.2 70 1.9 NW 11 35 6 19 1020.8 1021.1 0.6
16/07:30pm 5.2 0.3 -0.2 68 2.1 WSW 15 41 8 22 1020.6 1020.9 0.6
16/07:00pm 5.4 1.3 -0.4 66 2.2 S 11 35 6 19 1020.0 1020.3 0.6
16/06:30pm 5.6 -0.6 -0.2 66 2.2 WSW 22 46 12 25 1019.5 1019.7 0.6
16/06:00pm 5.6 -0.2 -1.8 59 2.7 WSW 19 41 10 22 1019.0 1019.2 0.6
16/05:30pm 5.6 -0.1 -0.4 65 2.3 W 19 46 10 25 1018.5 1018.8 0.6
16/05:07pm 5.8 -1.6 -0.5 64 2.4 SW 28 46 15 25 1018.0 1018.3 0.6
16/05:00pm 5.8 -1.2 -0.7 63 2.5 SW 26 46 14 25 1017.8 1018.1 0.6
16/04:30pm 6.0 1.2 -0.1 65 2.4 WNW 15 39 8 21 1017.4 1017.7 0.6
16/04:05pm 5.4 -2.6 -2.0 59 2.7 SW 30 48 16 26 1017.2 1017.5 0.6
16/04:00pm 5.8 -2.7 -2.0 57 2.9 SW 33 48 18 26 1017.0 1017.3 0.6
16/03:30pm 6.1 -0.3 -1.8 57 3.0 WSW 22 46 12 25 1016.8 1017.1 0.6
16/03:08pm 6.5 -1.4 -1.2 58 2.9 SW 30 48 16 26 1016.2 1016.5 0.6
16/03:00pm 6.3 -1.9 -1.3 58 2.9 SW 32 48 17 26 1016.1 1016.3 0.6
16/02:43pm 5.5 -1.2 -1.0 63 2.5 SW 24 46 13 25 1016.2 1016.5 0.6
16/02:30pm 5.1 -1.8 -0.1 69 2.0 SSW 26 46 14 25 1015.9 1016.1 0.6
16/02:01pm 6.7 -1.0 -3.0 50 3.5 SW 28 46 15 25 1015.3 1015.5 0.6
16/02:00pm 7.0 -0.2 -1.9 53 3.4 SSW 26 46 14 25 1015.2 1015.4 0.6
16/01:30pm 6.6 -1.0 -2.3 53 3.3 SW 28 48 15 26 1014.3 1014.6 0.6
16/01:09pm 5.4 -1.9 -0.2 67 2.2 SW 28 46 15 25 1014.5 1014.7 0.6
16/01:00pm 5.0 -1.4 0.9 75 1.6 SW 24 46 13 25 1014.7 1014.9 0.6
16/12:57pm 4.9 -1.9 0.7 74 1.6 SW 26 46 14 25 1014.7 1014.9 0.6
16/12:30pm 7.0 -1.2 -1.2 56 3.1 SW 32 48 17 26 1013.6 1013.9 0.4
16/12:25pm 5.9 -1.5 -0.6 63 2.5 SW 28 46 15 25 1013.8 1014.1 0.4
16/12:00pm 5.6 -0.8 0.8 71 1.9 SW 24 44 13 24 1013.9 1014.2 0.4
16/11:46am 5.2 -1.9 1.1 75 1.6 SW 28 46 15 25 1013.8 1014.1 0.4
16/11:30am 3.9 -4.2 -0.3 74 1.6 SSW 32 48 17 26 1013.3 1013.6 0.4
16/11:16am 4.8 -2.4 0.8 75 1.6 SW 28 46 15 25 1012.9 1013.2 0.4
16/11:00am 5.0 -3.0 0.6 73 1.7 SW 32 48 17 26 1012.2 1012.4 0.4
16/10:30am 3.9 -3.4 0.1 76 1.5 SW 28 50 15 27 1012.0 1012.2 0.2
16/10:05am 6.1 -1.1 0.4 67 2.3 SW 28 46 15 25 1011.1 1011.3 0.2
16/10:00am 5.7 -2.3 0.1 67 2.2 SW 32 48 17 26 1011.0 1011.2 0.2
16/09:57am 5.7 -2.3 0.1 67 2.2 SW 32 52 17 28 1010.8 1011.0 0.2
16/09:30am 3.8 -3.1 0.1 77 1.4 WSW 26 46 14 25 1011.3 1011.5 0.2
16/09:01am 5.5 -2.1 -2.1 58 2.8 SW 28 46 15 25 1009.8 1010.1 0.0
16/09:00am 5.6 -1.6 -2.0 58 2.8 SW 26 46 14 25 1009.7 1010.0 3.4
16/08:30am 6.2 -2.1 -1.4 58 2.9 SW 32 50 17 27 1009.4 1009.7 3.4
16/08:00am 6.2 -1.6 -0.5 62 2.6 SW 30 48 16 26 1008.6 1008.8 3.4
16/07:38am 5.0 -2.2 0.8 74 1.7 SW 28 48 15 26 1008.1 1008.3 3.4
16/07:30am 4.6 -2.2 1.1 78 1.4 SW 26 52 14 28 1007.7 1007.9 3.2
16/07:13am 5.3 -1.8 1.2 75 1.6 SW 28 48 15 26 1007.7 1007.9 3.0
16/07:00am 5.6 -2.2 1.5 75 1.7 SSW 32 44 17 24 1007.6 1007.8 3.0
16/06:32am 5.2 -1.9 1.5 77 1.5 SW 28 48 15 26 1006.5 1006.7 3.0
16/06:30am 4.6 -3.0 0.7 76 1.5 SW 30 48 16 26 1006.5 1006.7 3.0
16/06:01am 5.5 -1.5 1.8 77 1.5 SW 28 48 15 26 1005.5 1005.7 2.8
16/06:00am 5.5 -1.9 2.0 78 1.4 SW 30 48 16 26 1005.4 1005.6 2.8
16/05:30am 5.3 -1.8 1.2 75 1.6 SW 28 46 15 25 1004.6 1004.8 2.6
16/05:15am 5.4 -1.3 3.4 87 0.8 SW 28 52 15 28 1004.1 1004.3 2.6
16/05:00am 4.9 -0.1 3.4 90 0.6 W 19 44 10 24 1003.6 1003.8 2.4
16/04:30am 4.8 -1.7 2.7 86 0.9 WSW 26 52 14 28 1002.6 1002.8 1.2
16/04:21am 4.1 -1.9 0.8 79 1.3 S 22 52 12 28 1001.8 1001.9 0.8
16/04:00am 6.1 1.5 1.8 74 1.8 SSW 15 44 8 24 1001.8 1001.9 0.0
16/03:30am 6.7 2.2 2.0 72 1.9 W 15 41 8 22 1001.1 1001.3 0.0
16/03:00am 7.4 2.0 2.3 70 2.2 WNW 20 44 11 24 1000.5 1000.7 0.0
16/02:32am 7.1 0.6 2.8 74 1.8 NW 26 46 14 25 1001.1 1001.3 0.0
16/02:30am 7.3 2.0 3.0 74 1.8 WNW 20 44 11 24 1001.0 1001.2 0.0
16/02:00am 8.2 1.2 1.8 64 2.7 NW 28 46 15 25 1001.4 1001.5 0.0
16/01:59am 8.3 1.3 1.9 64 2.7 NW 28 46 15 25 1001.2 1001.4 0.0
16/01:30am 8.2 4.0 1.6 63 2.7 WNW 13 28 7 15 1001.7 1001.8 0.0
16/01:00am 8.4 2.5 1.6 62 2.9 WNW 22 44 12 24 1002.1 1002.2 0.0
16/12:30am 8.5 1.8 1.6 62 2.9 WNW 26 39 14 21 1002.8 1003.0 0.0
16/12:00am 8.6 0.9 2.2 64 2.7 NW 32 46 17 25 1002.9 1003.1 0.0
 
Date/Time
EST
Temp
°C
App
Temp
°C
Dew
Point
°C
Rel
Hum
%
Delta-T
°C
Wind Press
QNH
hPa
Press
MSL
hPa
Rain since
9am
mm
Dir  Spd
km/h
Gust
km/h
Spd
kts
Gust
kts
15/11:31pm 9.0 1.9 1.4 59 3.2 WNW 28 48 15 26 1003.1 1003.3 0.0
15/11:30pm 9.0 2.3 1.4 59 3.2 WNW 26 48 14 26 1003.2 1003.4 0.0
15/11:00pm 8.9 2.0 2.3 63 2.8 WNW 28 44 15 24 1003.8 1004.0 0.0
15/10:30pm 8.9 1.8 3.5 69 2.4 NW 30 39 16 21 1004.1 1004.3 0.0
15/10:00pm 9.2 2.9 4.0 70 2.3 NW 26 37 14 20 1004.7 1004.9 0.0
15/09:30pm 9.2 4.1 5.9 80 1.5 NNW 22 32 12 17 1005.3 1005.5 0.0
15/09:00pm 8.8 3.0 6.1 83 1.3 N 26 32 14 17 1005.5 1005.7 0.0
15/08:30pm 8.9 4.4 6.2 83 1.3 N 19 28 10 15 1006.1 1006.3 0.0
15/08:00pm 9.0 3.1 5.6 79 1.6 N 26 30 14 16 1006.4 1006.6 0.0
15/07:30pm 8.3 5.7 6.3 87 0.9 N 9 17 5 9 1006.6 1006.8 0.0
15/07:00pm 8.3 6.3 6.3 87 0.9 WNW 6 7 3 4 1006.6 1006.8 0.0
15/06:30pm 8.4 6.2 6.2 86 1.0 W 7 13 4 7 1006.7 1006.9 0.0
15/06:00pm 8.5 6.8 6.0 84 1.2 SW 4 9 2 5 1006.6 1006.8 0.0
15/05:30pm 9.0 5.2 5.9 81 1.4 SSW 15 30 8 16 1006.8 1007.0 0.0
15/05:00pm 9.2 5.0 5.9 80 1.5 SSW 17 33 9 18 1006.6 1006.8 0.0
15/04:30pm 9.4 5.6 5.9 79 1.6 SSW 15 28 8 15 1006.8 1007.0 0.0
15/04:00pm 10.1 6.4 6.1 76 1.9 SSW 15 24 8 13 1007.2 1007.4 0.0
15/03:30pm 10.6 6.8 6.0 73 2.2 SSW 15 28 8 15 1007.1 1007.3 0.0
15/03:00pm 11.3 7.5 6.0 70 2.5 SSW 15 24 8 13 1007.4 1007.6 0.0
15/02:30pm 11.3 7.5 5.8 69 2.6 SSW 15 26 8 14 1007.7 1007.9 0.0
15/02:00pm 12.3 7.9 5.0 61 3.4 SW 17 26 9 14 1007.8 1008.0 0.0
15/01:30pm 12.9 8.1 2.7 50 4.5 W 17 35 9 19 1008.0 1008.2 0.0
15/01:00pm 12.6 8.1 2.2 49 4.6 W 15 22 8 12 1008.4 1008.6 0.0
15/12:30pm 13.0 8.9 2.3 48 4.7 WNW 13 24 7 13 1008.7 1008.9 0.0
15/12:00pm 12.7 8.9 1.7 47 4.8 W 11 28 6 15 1009.2 1009.5 0.0
15/11:30am 12.4 8.9 1.4 47 4.7 W 9 24 5 13 1009.4 1009.7 0.0
15/11:00am 11.9 8.4 1.3 48 4.5 W 9 28 5 15 1009.4 1009.7 0.0
15/10:30am 11.7 8.6 1.1 48 4.5 W 7 22 4 12 1009.3 1009.6 0.0
15/10:00am 11.8 8.0 2.0 51 4.3 W 11 37 6 20 1009.3 1009.6 0.0
15/09:30am 11.8 8.8 2.3 52 4.2 WSW 7 24 4 13 1009.3 1009.6 0.0
15/09:00am 11.7 8.4 2.2 52 4.2 ENE 9 41 5 22 1009.1 1009.3 0.0
15/08:30am 11.4 7.5 1.4 50 4.3 WNW 11 39 6 21 1008.6 1008.8 0.0
15/08:00am 11.2 7.2 6.7 74 2.2 W 17 39 9 21 1008.7 1008.9 0.0
15/07:30am 10.4 6.1 7.1 80 1.6 SW 19 46 10 25 1008.4 1008.6 0.0
15/07:00am 9.7 4.9 7.5 86 1.1 SSW 22 43 12 23 1008.0 1008.2 0.0
15/06:30am 9.6 4.8 7.5 87 1.0 SSW 22 48 12 26 1007.6 1007.8 0.0
15/06:00am 10.0 5.2 7.4 84 1.3 SSW 22 46 12 25 1007.3 1007.5 0.0
15/05:30am 11.8 8.6 6.9 72 2.4 WSW 13 33 7 18 1007.1 1007.3 0.0
15/05:00am 12.2 8.7 7.3 72 2.4 W 15 44 8 24 1006.3 1006.5 0.0
15/04:30am 12.3 8.7 6.8 69 2.7 W 15 43 8 23 1006.0 1006.2 0.0
15/04:00am 12.6 8.0 6.4 66 3.0 W 20 37 11 20 1006.3 1006.5 0.0
15/03:30am 12.2 8.9 6.5 68 2.7 W 13 26 7 14 1006.5 1006.7 0.0
15/03:00am 12.3 8.4 5.5 63 3.2 WNW 15 24 8 13 1006.7 1006.9 0.0
15/02:30am 12.2 7.9 5.1 62 3.3 WNW 17 26 9 14 1007.1 1007.3 0.0
15/02:00am 12.3 7.0 5.0 61 3.4 WNW 22 43 12 23 1007.0 1007.2 0.0
15/01:30am 12.4 8.3 4.4 58 3.7 WNW 15 46 8 25 1007.2 1007.4 0.0
15/01:00am 12.7 8.2 2.3 49 4.6 WSW 15 43 8 23 1007.6 1007.8 0.0
15/12:30am 12.6 5.8 0.7 44 5.1 NW 26 41 14 22 1007.3 1007.5 0.0
15/12:00am 12.7 4.8 -1.6 37 5.8 NW 30 46 16 25 1007.7 1007.9 0.0
 
Date/Time
EST
Temp
°C
App
Temp
°C
Dew
Point
°C
Rel
Hum
%
Delta-T
°C
Wind Press
QNH
hPa
Press
MSL
hPa
Rain since
9am
mm
Dir  Spd
km/h
Gust
km/h
Spd
kts
Gust
kts
14/11:30pm 13.0 4.5 -2.1 35 6.1 NW 33 46 18 25 1008.1 1008.3 0.0
14/11:00pm 13.3 3.9 -2.6 33 6.3 NW 37 46 20 25 1008.5 1008.7 0.0
14/10:30pm 13.5 4.4 -3.3 31 6.6 NW 35 46 19 25 1008.9 1009.1 0.0
14/10:00pm 13.8 5.7 -3.0 31 6.7 NW 30 46 16 25 1009.4 1009.7 0.0
14/09:59pm 13.8 6.1 -3.0 31 6.7 NW 28 46 15 25 1009.5 1009.8 0.0
14/09:30pm 13.7 6.7 -3.1 31 6.6 WNW 24 41 13 22 1010.7 1010.9 0.0
14/09:00pm 14.1 7.6 -2.8 31 6.8 WNW 22 33 12 18 1011.3 1011.5 0.0
14/08:30pm 14.1 5.7 -2.3 32 6.6 WNW 32 46 17 25 1011.3 1011.5 0.0
14/08:22pm 14.3 4.9 -2.6 31 6.8 WNW 37 48 20 26 1011.4 1011.6 0.0
14/08:03pm 13.8 6.4 -1.0 36 6.1 NNW 28 46 15 25 1011.1 1011.3 0.0
14/08:00pm 13.4 6.5 0.4 41 5.5 NNW 26 46 14 25 1011.1 1011.3 0.0
14/07:30pm 13.7 5.6 0.0 39 5.8 NW 32 46 17 25 1011.4 1011.6 0.0
14/07:00pm 13.0 5.7 2.6 49 4.6 NNW 30 46 16 25 1011.8 1012.0 0.0
14/06:30pm 11.9 4.9 4.2 59 3.5 NNW 30 43 16 23 1012.2 1012.4 0.0
14/06:00pm 11.5 4.6 4.7 63 3.1 NNW 30 41 16 22 1012.7 1013.0 0.0
14/05:30pm 10.1 4.3 6.3 77 1.8 N 26 37 14 20 1013.0 1013.3 0.0
14/05:00pm 9.9 3.3 5.9 76 1.9 N 30 39 16 21 1013.3 1013.6 0.0
14/04:30pm 10.3 3.6 5.5 72 2.2 N 30 39 16 21 1014.0 1014.3 0.0
14/04:00pm 10.9 4.8 4.8 66 2.8 N 26 35 14 19 1014.1 1014.4 0.0
14/03:30pm 11.5 6.0 6.0 69 2.6 NNE 24 32 13 17 1014.9 1015.1 0.0
14/03:00pm 13.5 9.1 4.6 55 4.1 N 17 26 9 14 1015.4 1015.6 0.0
14/02:30pm 13.2 10.3 4.6 56 4.0 NNE 9 15 5 8 1015.9 1016.1 0.0
14/02:00pm 13.6 10.1 3.7 51 4.5 NW 11 19 6 10 1016.3 1016.6 0.0
14/01:30pm 13.1 9.6 3.7 53 4.3 W 11 17 6 9 1016.2 1016.5 0.0
14/01:00pm 12.8 9.8 4.3 56 3.9 WNW 9 15 5 8 1016.6 1016.9 0.0
14/12:30pm 12.2 9.2 4.2 58 3.7 W 9 17 5 9 1016.9 1017.2 0.0
14/12:00pm 11.6 8.2 4.1 60 3.4 WNW 11 32 6 17 1017.1 1017.4 0.0
14/11:30am 11.1 8.6 4.8 65 2.9 WNW 7 24 4 13 1017.5 1017.8 0.0
14/11:00am 10.6 7.6 4.3 65 2.8 WSW 9 26 5 14 1017.2 1017.5 0.0
14/10:30am 10.6 8.1 4.5 66 2.8 N 7 26 4 14 1017.4 1017.7 0.0
14/10:00am 10.2 7.3 4.4 67 2.6 NW 9 32 5 17 1017.3 1017.6 0.0
14/09:30am 9.9 7.0 4.9 71 2.3 NNW 9 28 5 15 1017.5 1017.8 0.0
14/09:00am 9.9 7.0 4.9 71 2.3 NE 9 28 5 15 1017.4 1017.7 1.0

Other formats

Comma delimited format used in spreadsheet applications
http://www.bom.gov.au/fwo/IDT60801/IDT60801.95986.axf

JavaScript Object Notation format (JSON) in row-major order
http://www.bom.gov.au/fwo/IDT60801/IDT60801.95986.json

Data quality

Most of these data are generated automatically and are frequently updated. Quality checks on data are not normally performed. It is possible for incorrect values to appear. Refer to information at About Latest Weather Observations and please check the disclaimer before using these data.